sensor_id;sensor_type;location;lat;lon;timestamp;pressure;altitude;pressure_sealevel;temperature;humidity
41632;BME280;37452;51.938;4.624;2023-09-12T00:02:04;75479.91;;;-142.75;100.00
41632;BME280;37452;51.938;4.624;2023-09-12T00:04:29;75479.91;;;-142.75;100.00
41632;BME280;37452;51.938;4.624;2023-09-12T00:06:55;75483.84;;;-142.75;100.00
41632;BME280;37452;51.938;4.624;2023-09-12T00:09:21;75491.72;;;-142.75;100.00
41632;BME280;37452;51.938;4.624;2023-09-12T00:11:46;75503.53;;;-142.75;100.00
41632;BME280;37452;51.938;4.624;2023-09-12T00:14:15;75495.66;;;-142.75;100.00
41632;BME280;37452;51.938;4.624;2023-09-12T00:16:41;75491.72;;;-142.75;100.00
41632;BME280;37452;51.938;4.624;2023-09-12T00:19:06;75501.56;;;-142.75;100.00
41632;BME280;37452;51.938;4.624;2023-09-12T00:21:32;75513.38;;;-142.75;100.00
41632;BME280;37452;51.938;4.624;2023-09-12T00:23:57;75519.25;;;-142.75;100.00
41632;BME280;37452;51.938;4.624;2023-09-12T00:26:22;75531.06;;;-142.75;100.00
41632;BME280;37452;51.938;4.624;2023-09-12T00:28:48;75523.19;;;-142.75;100.00
41632;BME280;37452;51.938;4.624;2023-09-12T00:31:13;75507.47;;;-142.75;100.00
41632;BME280;37452;51.938;4.624;2023-09-12T00:33:38;75491.72;;;-142.75;100.00
41632;BME280;37452;51.938;4.624;2023-09-12T00:36:04;75489.75;;;-142.75;100.00
41632;BME280;37452;51.938;4.624;2023-09-12T00:38:29;75483.84;;;-142.75;100.00
41632;BME280;37452;51.938;4.624;2023-09-12T00:40:55;75487.78;;;-142.75;100.00
41632;BME280;37452;51.938;4.624;2023-09-12T00:43:20;75487.78;;;-142.75;100.00
41632;BME280;37452;51.938;4.624;2023-09-12T00:45:45;75495.66;;;-142.75;100.00
41632;BME280;37452;51.938;4.624;2023-09-12T00:48:12;75489.75;;;-142.75;100.00
41632;BME280;37452;51.938;4.624;2023-09-12T00:50:38;75501.56;;;-142.75;100.00
41632;BME280;37452;51.938;4.624;2023-09-12T00:53:05;75511.41;;;-142.75;100.00
41632;BME280;37452;51.938;4.624;2023-09-12T00:55:32;75515.31;;;-142.75;100.00
41632;BME280;37452;51.938;4.624;2023-09-12T00:57:58;75511.41;;;-142.75;100.00
41632;BME280;37452;51.938;4.624;2023-09-12T01:00:24;75515.31;;;-142.75;100.00
41632;BME280;37452;51.938;4.624;2023-09-12T01:02:50;75507.47;;;-142.75;100.00
41632;BME280;37452;51.938;4.624;2023-09-12T01:05:17;75507.47;;;-142.75;100.00
41632;BME280;37452;51.938;4.624;2023-09-12T01:07:43;75503.53;;;-142.75;100.00
41632;BME280;37452;51.938;4.624;2023-09-12T01:10:09;75507.47;;;-142.75;100.00
41632;BME280;37452;51.938;4.624;2023-09-12T01:12:35;75513.38;;;-142.75;100.00
41632;BME280;37452;51.938;4.624;2023-09-12T01:15:01;75511.41;;;-142.75;100.00
41632;BME280;37452;51.938;4.624;2023-09-12T01:17:28;75515.31;;;-142.75;100.00
41632;BME280;37452;51.938;4.624;2023-09-12T01:19:53;75515.31;;;-142.75;100.00
41632;BME280;37452;51.938;4.624;2023-09-12T01:22:58;75511.41;;;-142.75;100.00
41632;BME280;37452;51.938;4.624;2023-09-12T01:25:38;75531.06;;;-142.75;100.00
41632;BME280;37452;51.938;4.624;2023-09-12T01:28:09;75523.19;;;-142.75;100.00
41632;BME280;37452;51.938;4.624;2023-09-12T01:30:35;75536.97;;;-142.75;100.00
41632;BME280;37452;51.938;4.624;2023-09-12T01:33:01;75546.81;;;-142.75;100.00
41632;BME280;37452;51.938;4.624;2023-09-12T01:35:27;75554.69;;;-142.75;100.00
41632;BME280;37452;51.938;4.624;2023-09-12T01:37:53;75552.72;;;-142.75;100.00
41632;BME280;37452;51.938;4.624;2023-09-12T01:40:25;75558.63;;;-142.75;100.00
41632;BME280;37452;51.938;4.624;2023-09-12T01:42:52;75572.41;;;-142.75;100.00
41632;BME280;37452;51.938;4.624;2023-09-12T01:45:19;75564.53;;;-142.75;100.00
41632;BME280;37452;51.938;4.624;2023-09-12T01:47:45;75562.56;;;-142.75;100.00
41632;BME280;37452;51.938;4.624;2023-09-12T01:50:13;75568.47;;;-142.75;100.00
41632;BME280;37452;51.938;4.624;2023-09-12T01:52:40;75564.53;;;-142.75;100.00
41632;BME280;37452;51.938;4.624;2023-09-12T01:55:06;75550.75;;;-142.75;100.00
41632;BME280;37452;51.938;4.624;2023-09-12T01:57:34;75562.56;;;-142.75;100.00
41632;BME280;37452;51.938;4.624;2023-09-12T02:00:01;75550.75;;;-142.75;100.00
41632;BME280;37452;51.938;4.624;2023-09-12T02:02:26;75540.91;;;-142.75;100.00
41632;BME280;37452;51.938;4.624;2023-09-12T02:05:07;75540.91;;;-142.75;100.00
41632;BME280;37452;51.938;4.624;2023-09-12T02:07:38;75535.00;;;-142.75;100.00
41632;BME280;37452;51.938;4.624;2023-09-12T02:10:04;75523.19;;;-142.75;100.00
41632;BME280;37452;51.938;4.624;2023-09-12T02:12:32;75525.16;;;-142.75;100.00
41632;BME280;37452;51.938;4.624;2023-09-12T02:14:57;75527.13;;;-142.75;100.00
41632;BME280;37452;51.938;4.624;2023-09-12T02:17:23;75535.00;;;-142.75;100.00
41632;BME280;37452;51.938;4.624;2023-09-12T02:19:48;75554.69;;;-142.75;100.00
41632;BME280;37452;51.938;4.624;2023-09-12T02:22:14;75558.63;;;-142.75;100.00
41632;BME280;37452;51.938;4.624;2023-09-12T02:24:39;75552.72;;;-142.75;100.00
41632;BME280;37452;51.938;4.624;2023-09-12T02:27:05;75552.72;;;-142.75;100.00
41632;BME280;37452;51.938;4.624;2023-09-12T02:29:30;75562.56;;;-142.75;100.00
41632;BME280;37452;51.938;4.624;2023-09-12T02:31:57;75558.63;;;-142.75;100.00
41632;BME280;37452;51.938;4.624;2023-09-12T02:34:23;75568.47;;;-142.75;100.00
41632;BME280;37452;51.938;4.624;2023-09-12T02:36:48;75564.53;;;-142.75;100.00
41632;BME280;37452;51.938;4.624;2023-09-12T02:39:13;75574.38;;;-142.75;100.00
41632;BME280;37452;51.938;4.624;2023-09-12T02:41:39;75596.00;;;-142.75;100.00
41632;BME280;37452;51.938;4.624;2023-09-12T02:44:04;75584.22;;;-142.75;100.00
41632;BME280;37452;51.938;4.624;2023-09-12T02:46:30;75582.25;;;-142.75;100.00
41632;BME280;37452;51.938;4.624;2023-09-12T02:48:55;75599.94;;;-142.75;100.00
41632;BME280;37452;51.938;4.624;2023-09-12T02:51:20;75588.16;;;-142.75;100.00
41632;BME280;37452;51.938;4.624;2023-09-12T02:53:46;75574.38;;;-142.75;100.00
41632;BME280;37452;51.938;4.624;2023-09-12T02:56:11;75572.41;;;-142.75;100.00
41632;BME280;37452;51.938;4.624;2023-09-12T02:58:37;75550.75;;;-142.75;100.00
41632;BME280;37452;51.938;4.624;2023-09-12T03:01:02;75550.75;;;-142.75;100.00
41632;BME280;37452;51.938;4.624;2023-09-12T03:03:30;75542.88;;;-142.75;100.00
41632;BME280;37452;51.938;4.624;2023-09-12T03:06:01;75535.00;;;-142.75;100.00
41632;BME280;37452;51.938;4.624;2023-09-12T03:08:30;75525.16;;;-142.75;100.00
41632;BME280;37452;51.938;4.624;2023-09-12T03:10:56;75525.16;;;-142.75;100.00
41632;BME280;37452;51.938;4.624;2023-09-12T03:13:25;75521.22;;;-142.75;100.00
41632;BME280;37452;51.938;4.624;2023-09-12T03:15:51;75533.03;;;-142.75;100.00
41632;BME280;37452;51.938;4.624;2023-09-12T03:18:16;75542.88;;;-142.75;100.00
41632;BME280;37452;51.938;4.624;2023-09-12T03:20:42;75544.84;;;-142.75;100.00
41632;BME280;37452;51.938;4.624;2023-09-12T03:23:07;75540.91;;;-142.75;100.00
41632;BME280;37452;51.938;4.624;2023-09-12T03:25:36;75521.22;;;-142.75;100.00
41632;BME280;37452;51.938;4.624;2023-09-12T03:28:04;75521.22;;;-142.75;100.00
41632;BME280;37452;51.938;4.624;2023-09-12T03:30:29;75517.28;;;-142.75;100.00
41632;BME280;37452;51.938;4.624;2023-09-12T03:32:54;75523.19;;;-142.75;100.00
41632;BME280;37452;51.938;4.624;2023-09-12T03:35:20;75542.88;;;-142.75;100.00
41632;BME280;37452;51.938;4.624;2023-09-12T03:37:45;75568.47;;;-142.75;100.00
41632;BME280;37452;51.938;4.624;2023-09-12T03:40:11;75574.38;;;-142.75;100.00
41632;BME280;37452;51.938;4.624;2023-09-12T03:42:36;75578.31;;;-142.75;100.00
41632;BME280;37452;51.938;4.624;2023-09-12T03:45:02;75597.97;;;-142.75;100.00
41632;BME280;37452;51.938;4.624;2023-09-12T03:47:28;75572.41;;;-142.75;100.00
41632;BME280;37452;51.938;4.624;2023-09-12T03:49:53;75576.34;;;-142.75;100.00
41632;BME280;37452;51.938;4.624;2023-09-12T03:52:19;75566.50;;;-142.75;100.00
41632;BME280;37452;51.938;4.624;2023-09-12T03:54:44;75574.38;;;-142.75;100.00
41632;BME280;37452;51.938;4.624;2023-09-12T03:57:09;75560.59;;;-142.75;100.00
41632;BME280;37452;51.938;4.624;2023-09-12T03:59:35;75550.75;;;-142.75;100.00
41632;BME280;37452;51.938;4.624;2023-09-12T04:02:01;75552.72;;;-142.75;100.00
41632;BME280;37452;51.938;4.624;2023-09-12T04:04:28;75554.69;;;-142.75;100.00
41632;BME280;37452;51.938;4.624;2023-09-12T04:06:53;75558.63;;;-142.75;100.00
41632;BME280;37452;51.938;4.624;2023-09-12T04:09:19;75548.78;;;-142.75;100.00
41632;BME280;37452;51.938;4.624;2023-09-12T04:11:45;75542.88;;;-142.75;100.00
41632;BME280;37452;51.938;4.624;2023-09-12T04:14:10;75558.63;;;-142.75;100.00
41632;BME280;37452;51.938;4.624;2023-09-12T04:16:36;75558.63;;;-142.75;100.00
41632;BME280;37452;51.938;4.624;2023-09-12T04:19:01;75562.56;;;-142.75;100.00
41632;BME280;37452;51.938;4.624;2023-09-12T04:21:26;75558.63;;;-142.75;100.00
41632;BME280;37452;51.938;4.624;2023-09-12T04:23:52;75548.78;;;-142.75;100.00
41632;BME280;37452;51.938;4.624;2023-09-12T04:26:17;75552.72;;;-142.75;100.00
41632;BME280;37452;51.938;4.624;2023-09-12T04:28:42;75546.81;;;-142.75;100.00
41632;BME280;37452;51.938;4.624;2023-09-12T04:31:08;75540.91;;;-142.75;100.00
41632;BME280;37452;51.938;4.624;2023-09-12T04:33:34;75540.91;;;-142.75;100.00
41632;BME280;37452;51.938;4.624;2023-09-12T04:36:00;75523.19;;;-142.75;100.00
41632;BME280;37452;51.938;4.624;2023-09-12T04:38:26;75523.19;;;-142.75;100.00
41632;BME280;37452;51.938;4.624;2023-09-12T04:41:00;75519.25;;;-142.75;100.00
41632;BME280;37452;51.938;4.624;2023-09-12T04:43:30;75521.22;;;-142.75;100.00
41632;BME280;37452;51.938;4.624;2023-09-12T04:45:55;75507.47;;;-142.75;100.00
41632;BME280;37452;51.938;4.624;2023-09-12T04:48:21;75513.38;;;-142.75;100.00
41632;BME280;37452;51.938;4.624;2023-09-12T04:50:46;75507.47;;;-142.75;100.00
41632;BME280;37452;51.938;4.624;2023-09-12T04:53:11;75501.56;;;-142.75;100.00
41632;BME280;37452;51.938;4.624;2023-09-12T04:55:37;75501.56;;;-142.75;100.00
41632;BME280;37452;51.938;4.624;2023-09-12T04:58:04;75495.66;;;-142.75;100.00
41632;BME280;37452;51.938;4.624;2023-09-12T05:00:29;75495.66;;;-142.75;100.00
41632;BME280;37452;51.938;4.624;2023-09-12T05:02:55;75491.72;;;-142.75;100.00
41632;BME280;37452;51.938;4.624;2023-09-12T05:05:20;75503.53;;;-142.75;100.00
41632;BME280;37452;51.938;4.624;2023-09-12T05:07:46;75487.78;;;-142.75;100.00
41632;BME280;37452;51.938;4.624;2023-09-12T05:10:11;75479.91;;;-142.75;100.00
41632;BME280;37452;51.938;4.624;2023-09-12T05:12:36;75477.94;;;-142.75;100.00
41632;BME280;37452;51.938;4.624;2023-09-12T05:15:02;75477.94;;;-142.75;100.00
41632;BME280;37452;51.938;4.624;2023-09-12T05:17:28;75474.00;;;-142.75;100.00
41632;BME280;37452;51.938;4.624;2023-09-12T05:19:53;75468.09;;;-142.75;100.00
41632;BME280;37452;51.938;4.624;2023-09-12T05:22:18;75452.34;;;-142.75;100.00
41632;BME280;37452;51.938;4.624;2023-09-12T05:24:45;75436.59;;;-142.75;100.00
41632;BME280;37452;51.938;4.624;2023-09-12T05:27:11;75422.84;;;-142.75;100.00
41632;BME280;37452;51.938;4.624;2023-09-12T05:29:37;75428.75;;;-142.75;100.00
41632;BME280;37452;51.938;4.624;2023-09-12T05:32:03;75418.91;;;-142.75;100.00
41632;BME280;37452;51.938;4.624;2023-09-12T05:34:28;75428.75;;;-142.75;100.00
41632;BME280;37452;51.938;4.624;2023-09-12T05:36:53;75430.72;;;-142.75;100.00
41632;BME280;37452;51.938;4.624;2023-09-12T05:39:19;75438.56;;;-142.75;100.00
41632;BME280;37452;51.938;4.624;2023-09-12T05:41:44;75444.47;;;-142.75;100.00
41632;BME280;37452;51.938;4.624;2023-09-12T05:44:09;75438.56;;;-142.75;100.00
41632;BME280;37452;51.938;4.624;2023-09-12T05:46:37;75440.53;;;-142.75;100.00
41632;BME280;37452;51.938;4.624;2023-09-12T05:49:03;75422.84;;;-142.75;100.00
41632;BME280;37452;51.938;4.624;2023-09-12T05:51:29;75426.78;;;-142.75;100.00
41632;BME280;37452;51.938;4.624;2023-09-12T05:53:54;75409.06;;;-142.75;100.00
41632;BME280;37452;51.938;4.624;2023-09-12T05:56:20;75409.06;;;-142.75;100.00
41632;BME280;37452;51.938;4.624;2023-09-12T05:58:45;75393.31;;;-142.75;100.00
41632;BME280;37452;51.938;4.624;2023-09-12T06:01:11;75397.25;;;-142.75;100.00
41632;BME280;37452;51.938;4.624;2023-09-12T06:03:37;75395.28;;;-142.75;100.00
41632;BME280;37452;51.938;4.624;2023-09-12T06:06:02;75381.50;;;-142.75;100.00
41632;BME280;37452;51.938;4.624;2023-09-12T06:08:28;75393.31;;;-142.75;100.00
41632;BME280;37452;51.938;4.624;2023-09-12T06:10:53;75393.31;;;-142.75;100.00
41632;BME280;37452;51.938;4.624;2023-09-12T06:13:19;75403.16;;;-142.75;100.00
41632;BME280;37452;51.938;4.624;2023-09-12T06:15:45;75399.22;;;-142.75;100.00
41632;BME280;37452;51.938;4.624;2023-09-12T06:18:10;75405.13;;;-142.75;100.00
41632;BME280;37452;51.938;4.624;2023-09-12T06:20:36;75399.22;;;-142.75;100.00
41632;BME280;37452;51.938;4.624;2023-09-12T06:23:01;75389.38;;;-142.75;100.00
41632;BME280;37452;51.938;4.624;2023-09-12T06:25:28;75401.19;;;-142.75;100.00
41632;BME280;37452;51.938;4.624;2023-09-12T06:27:54;75389.38;;;-142.75;100.00
41632;BME280;37452;51.938;4.624;2023-09-12T06:30:19;75393.31;;;-142.75;100.00
41632;BME280;37452;51.938;4.624;2023-09-12T06:32:45;75395.28;;;-142.75;100.00
41632;BME280;37452;51.938;4.624;2023-09-12T06:35:10;75375.59;;;-142.75;100.00
41632;BME280;37452;51.938;4.624;2023-09-12T06:37:37;75373.63;;;-142.75;100.00
41632;BME280;37452;51.938;4.624;2023-09-12T06:40:03;75377.56;;;-142.75;100.00
41632;BME280;37452;51.938;4.624;2023-09-12T06:42:29;75393.31;;;-142.75;100.00
41632;BME280;37452;51.938;4.624;2023-09-12T06:44:54;75395.28;;;-142.75;100.00
41632;BME280;37452;51.938;4.624;2023-09-12T06:47:19;75381.50;;;-142.75;100.00
41632;BME280;37452;51.938;4.624;2023-09-12T06:49:45;75385.44;;;-142.75;100.00
41632;BME280;37452;51.938;4.624;2023-09-12T06:52:10;75393.31;;;-142.75;100.00
41632;BME280;37452;51.938;4.624;2023-09-12T06:54:35;75393.31;;;-142.75;100.00
41632;BME280;37452;51.938;4.624;2023-09-12T06:57:01;75391.34;;;-142.75;100.00
41632;BME280;37452;51.938;4.624;2023-09-12T06:59:26;75389.38;;;-142.75;100.00
41632;BME280;37452;51.938;4.624;2023-09-12T07:01:51;75385.44;;;-142.75;100.00
41632;BME280;37452;51.938;4.624;2023-09-12T07:04:17;75387.41;;;-142.75;100.00
41632;BME280;37452;51.938;4.624;2023-09-12T07:06:42;75389.38;;;-142.75;100.00
41632;BME280;37452;51.938;4.624;2023-09-12T07:09:08;75393.31;;;-142.75;100.00
41632;BME280;37452;51.938;4.624;2023-09-12T07:11:34;75377.56;;;-142.75;100.00
41632;BME280;37452;51.938;4.624;2023-09-12T07:14:00;75375.59;;;-142.75;100.00
41632;BME280;37452;51.938;4.624;2023-09-12T07:16:25;75369.69;;;-142.75;100.00
41632;BME280;37452;51.938;4.624;2023-09-12T07:18:51;75359.88;;;-142.75;100.00
41632;BME280;37452;51.938;4.624;2023-09-12T07:21:17;75355.94;;;-142.75;100.00
41632;BME280;37452;51.938;4.624;2023-09-12T07:23:42;75338.22;;;-142.75;100.00
41632;BME280;37452;51.938;4.624;2023-09-12T07:26:12;75338.22;;;-142.75;100.00
41632;BME280;37452;51.938;4.624;2023-09-12T07:28:39;75310.66;;;-142.75;100.00
41632;BME280;37452;51.938;4.624;2023-09-12T07:31:04;75291.00;;;-142.75;100.00
41632;BME280;37452;51.938;4.624;2023-09-12T07:33:29;75277.22;;;-142.75;100.00
41632;BME280;37452;51.938;4.624;2023-09-12T07:35:54;75294.94;;;-142.75;100.00
41632;BME280;37452;51.938;4.624;2023-09-12T07:38:21;75316.56;;;-142.75;100.00
41632;BME280;37452;51.938;4.624;2023-09-12T07:40:46;75304.75;;;-142.75;100.00
41632;BME280;37452;51.938;4.624;2023-09-12T07:43:12;75279.19;;;-142.75;100.00
41632;BME280;37452;51.938;4.624;2023-09-12T07:45:37;75279.19;;;-142.75;100.00
41632;BME280;37452;51.938;4.624;2023-09-12T07:48:07;75253.59;;;-142.75;100.00
41632;BME280;37452;51.938;4.624;2023-09-12T07:50:33;75255.56;;;-142.75;100.00
41632;BME280;37452;51.938;4.624;2023-09-12T07:52:58;75275.25;;;-142.75;100.00
41632;BME280;37452;51.938;4.624;2023-09-12T07:55:24;75281.16;;;-142.75;100.00
41632;BME280;37452;51.938;4.624;2023-09-12T07:57:49;75283.13;;;-142.75;100.00
41632;BME280;37452;51.938;4.624;2023-09-12T08:00:14;75273.28;;;-142.75;100.00
41632;BME280;37452;51.938;4.624;2023-09-12T08:02:41;75271.31;;;-142.75;100.00
41632;BME280;37452;51.938;4.624;2023-09-12T08:05:07;75277.22;;;-142.75;100.00
41632;BME280;37452;51.938;4.624;2023-09-12T08:07:33;75291.00;;;-142.75;100.00
41632;BME280;37452;51.938;4.624;2023-09-12T08:09:59;75285.09;;;-142.75;100.00
41632;BME280;37452;51.938;4.624;2023-09-12T08:12:26;75289.03;;;-142.75;100.00
41632;BME280;37452;51.938;4.624;2023-09-12T08:14:52;75273.28;;;-142.75;100.00
41632;BME280;37452;51.938;4.624;2023-09-12T08:17:18;75281.16;;;-142.75;100.00
41632;BME280;37452;51.938;4.624;2023-09-12T08:19:43;75277.22;;;-142.75;100.00
41632;BME280;37452;51.938;4.624;2023-09-12T08:22:10;75287.06;;;-142.75;100.00
41632;BME280;37452;51.938;4.624;2023-09-12T08:24:36;75287.06;;;-142.75;100.00
41632;BME280;37452;51.938;4.624;2023-09-12T08:27:02;75291.00;;;-142.75;100.00
41632;BME280;37452;51.938;4.624;2023-09-12T08:29:28;75255.56;;;-142.75;100.00
41632;BME280;37452;51.938;4.624;2023-09-12T08:31:54;75224.09;;;-142.75;100.00
41632;BME280;37452;51.938;4.624;2023-09-12T08:34:20;75251.63;;;-142.75;100.00
41632;BME280;37452;51.938;4.624;2023-09-12T08:36:46;75289.03;;;-142.75;100.00
41632;BME280;37452;51.938;4.624;2023-09-12T08:39:15;75300.81;;;-142.75;100.00
41632;BME280;37452;51.938;4.624;2023-09-12T08:41:42;75314.59;;;-142.75;100.00
41632;BME280;37452;51.938;4.624;2023-09-12T08:44:08;75342.16;;;-142.75;100.00
41632;BME280;37452;51.938;4.624;2023-09-12T08:46:34;75361.84;;;-142.75;100.00
41632;BME280;37452;51.938;4.624;2023-09-12T08:49:00;75326.41;;;-142.75;100.00
41632;BME280;37452;51.938;4.624;2023-09-12T08:51:25;75353.97;;;-142.75;100.00
41632;BME280;37452;51.938;4.624;2023-09-12T08:53:51;75332.31;;;-142.75;100.00
41632;BME280;37452;51.938;4.624;2023-09-12T08:56:20;75373.63;;;-142.75;100.00
41632;BME280;37452;51.938;4.624;2023-09-12T08:58:45;75314.59;;;-142.75;100.00
41632;BME280;37452;51.938;4.624;2023-09-12T09:01:13;75312.63;;;-142.75;100.00
41632;BME280;37452;51.938;4.624;2023-09-12T09:03:42;75389.38;;;-142.75;100.00
41632;BME280;37452;51.938;4.624;2023-09-12T09:06:09;75352.00;;;-142.75;100.00
41632;BME280;37452;51.938;4.624;2023-09-12T09:08:36;75320.50;;;-142.75;100.00
41632;BME280;37452;51.938;4.624;2023-09-12T09:11:02;75330.34;;;-142.75;100.00
41632;BME280;37452;51.938;4.624;2023-09-12T09:13:28;75355.94;;;-142.75;100.00
41632;BME280;37452;51.938;4.624;2023-09-12T09:16:23;75411.03;;;-142.75;100.00
41632;BME280;37452;51.938;4.624;2023-09-12T09:19:00;75432.69;;;-142.75;100.00
41632;BME280;37452;51.938;4.624;2023-09-12T09:21:31;75440.53;;;-142.75;100.00
41632;BME280;37452;51.938;4.624;2023-09-12T09:24:06;75460.22;;;-142.75;100.00
41632;BME280;37452;51.938;4.624;2023-09-12T09:26:46;75434.66;;;-142.75;100.00
41632;BME280;37452;51.938;4.624;2023-09-12T09:29:16;75460.22;;;-142.75;100.00
41632;BME280;37452;51.938;4.624;2023-09-12T09:31:43;75452.34;;;-142.75;100.00
41632;BME280;37452;51.938;4.624;2023-09-12T09:36:42;75353.97;;;-142.75;100.00
41632;BME280;37452;51.938;4.624;2023-09-12T09:39:08;75355.94;;;-142.75;100.00
41632;BME280;37452;51.938;4.624;2023-09-12T09:41:34;75322.47;;;-142.75;100.00
41632;BME280;37452;51.938;4.624;2023-09-12T09:44:00;75355.94;;;-142.75;100.00
41632;BME280;37452;51.938;4.624;2023-09-12T09:46:25;75371.66;;;-142.75;100.00
41632;BME280;37452;51.938;4.624;2023-09-12T09:48:51;75353.97;;;-142.75;100.00
41632;BME280;37452;51.938;4.624;2023-09-12T09:51:17;75353.97;;;-142.75;100.00
41632;BME280;37452;51.938;4.624;2023-09-12T09:53:43;75411.03;;;-142.75;100.00
41632;BME280;37452;51.938;4.624;2023-09-12T09:58:35;75371.66;;;-142.75;100.00
41632;BME280;37452;51.938;4.624;2023-09-12T10:01:01;75359.88;;;-142.75;100.00
41632;BME280;37452;51.938;4.624;2023-09-12T10:03:26;75371.66;;;-142.75;100.00
41632;BME280;37452;51.938;4.624;2023-09-12T10:05:56;75344.13;;;-142.75;100.00
41632;BME280;37452;51.938;4.624;2023-09-12T10:08:23;75342.16;;;-142.75;100.00
41632;BME280;37452;51.938;4.624;2023-09-12T10:10:50;75326.41;;;-142.75;100.00
41632;BME280;37452;51.938;4.624;2023-09-12T10:13:18;75287.06;;;-142.75;100.00
41632;BME280;37452;51.938;4.624;2023-09-12T10:15:44;75218.19;;;-142.75;100.00
41632;BME280;37452;51.938;4.624;2023-09-12T10:18:14;75249.66;;;-142.75;100.00
41632;BME280;37452;51.938;4.624;2023-09-12T10:20:55;75220.16;;;-142.75;100.00
41632;BME280;37452;51.938;4.624;2023-09-12T10:23:39;75204.41;;;-142.75;100.00
41632;BME280;37452;51.938;4.624;2023-09-12T10:26:10;75198.50;;;-142.75;100.00
41632;BME280;37452;51.938;4.624;2023-09-12T10:28:37;75192.59;;;-142.75;100.00
41632;BME280;37452;51.938;4.624;2023-09-12T10:31:04;75253.59;;;-142.75;100.00
41632;BME280;37452;51.938;4.624;2023-09-12T10:33:31;75204.41;;;-142.75;100.00
41632;BME280;37452;51.938;4.624;2023-09-12T10:35:57;75263.44;;;-142.75;100.00
41632;BME280;37452;51.938;4.624;2023-09-12T10:38:23;75218.19;;;-142.75;100.00
41632;BME280;37452;51.938;4.624;2023-09-12T10:40:53;75222.13;;;-142.75;100.00
41632;BME280;37452;51.938;4.624;2023-09-12T10:43:21;75228.00;;;-142.75;100.00
41632;BME280;37452;51.938;4.624;2023-09-12T10:45:48;75243.75;;;-142.75;100.00
41632;BME280;37452;51.938;4.624;2023-09-12T10:48:14;75168.97;;;-142.75;100.00
41632;BME280;37452;51.938;4.624;2023-09-12T10:50:40;75147.34;;;-142.75;100.00
41632;BME280;37452;51.938;4.624;2023-09-12T10:53:12;75119.78;;;-142.75;100.00
41632;BME280;37452;51.938;4.624;2023-09-12T10:55:39;75127.66;;;-142.75;100.00
41632;BME280;37452;51.938;4.624;2023-09-12T10:58:06;75107.97;;;-142.75;100.00
41632;BME280;37452;51.938;4.624;2023-09-12T11:00:32;75078.47;;;-142.75;100.00
41632;BME280;37452;51.938;4.624;2023-09-12T11:02:59;75082.41;;;-142.75;100.00
41632;BME280;37452;51.938;4.624;2023-09-12T11:07:59;75096.19;;;-142.75;100.00
41632;BME280;37452;51.938;4.624;2023-09-12T11:10:26;75094.22;;;-142.75;100.00
41632;BME280;37452;51.938;4.624;2023-09-12T11:12:56;75066.66;;;-142.75;100.00
41632;BME280;37452;51.938;4.624;2023-09-12T11:15:26;75113.88;;;-142.75;100.00
41632;BME280;37452;51.938;4.624;2023-09-12T11:18:01;75133.56;;;-142.75;100.00
41632;BME280;37452;51.938;4.624;2023-09-12T11:20:52;75131.59;;;-142.75;100.00
41632;BME280;37452;51.938;4.624;2023-09-12T11:23:18;75129.63;;;-142.75;100.00
41632;BME280;37452;51.938;4.624;2023-09-12T11:25:44;75115.84;;;-142.75;100.00
41632;BME280;37452;51.938;4.624;2023-09-12T11:28:10;75106.00;;;-142.75;100.00
41632;BME280;37452;51.938;4.624;2023-09-12T11:30:35;75133.56;;;-142.75;100.00
41632;BME280;37452;51.938;4.624;2023-09-12T11:33:04;75125.69;;;-142.75;100.00
41632;BME280;37452;51.938;4.624;2023-09-12T11:35:36;75113.88;;;-142.75;100.00
41632;BME280;37452;51.938;4.624;2023-09-12T11:38:02;75129.63;;;-142.75;100.00
41632;BME280;37452;51.938;4.624;2023-09-12T11:42:59;75165.03;;;-142.75;100.00
41632;BME280;37452;51.938;4.624;2023-09-12T11:45:25;75178.81;;;-142.75;100.00
41632;BME280;37452;51.938;4.624;2023-09-12T11:47:50;75186.69;;;-142.75;100.00
41632;BME280;37452;51.938;4.624;2023-09-12T11:50:52;75222.13;;;-142.75;100.00
41632;BME280;37452;51.938;4.624;2023-09-12T11:53:20;75212.28;;;-142.75;100.00
41632;BME280;37452;51.938;4.624;2023-09-12T11:55:48;75192.59;;;-142.75;100.00
41632;BME280;37452;51.938;4.624;2023-09-12T11:58:15;75265.41;;;-142.75;100.00
41632;BME280;37452;51.938;4.624;2023-09-12T12:00:45;75233.91;;;-142.75;100.00
41632;BME280;37452;51.938;4.624;2023-09-12T12:03:11;75239.81;;;-142.75;100.00
41632;BME280;37452;51.938;4.624;2023-09-12T12:05:37;75257.53;;;-142.75;100.00
41632;BME280;37452;51.938;4.624;2023-09-12T12:08:03;75241.78;;;-142.75;100.00
41632;BME280;37452;51.938;4.624;2023-09-12T12:10:28;75239.81;;;-142.75;100.00
41632;BME280;37452;51.938;4.624;2023-09-12T12:12:54;75190.63;;;-142.75;100.00
41632;BME280;37452;51.938;4.624;2023-09-12T12:15:20;75170.94;;;-142.75;100.00
41632;BME280;37452;51.938;4.624;2023-09-12T12:17:45;75198.50;;;-142.75;100.00
41632;BME280;37452;51.938;4.624;2023-09-12T12:20:11;75206.38;;;-142.75;100.00
41632;BME280;37452;51.938;4.624;2023-09-12T12:22:40;75233.91;;;-142.75;100.00
41632;BME280;37452;51.938;4.624;2023-09-12T12:25:10;75204.41;;;-142.75;100.00
41632;BME280;37452;51.938;4.624;2023-09-12T12:27:39;75163.09;;;-142.75;100.00
41632;BME280;37452;51.938;4.624;2023-09-12T12:30:09;75165.03;;;-142.75;100.00
41632;BME280;37452;51.938;4.624;2023-09-12T12:32:42;75184.72;;;-142.75;100.00
41632;BME280;37452;51.938;4.624;2023-09-12T12:35:09;75170.94;;;-142.75;100.00
41632;BME280;37452;51.938;4.624;2023-09-12T12:37:36;75172.91;;;-142.75;100.00
41632;BME280;37452;51.938;4.624;2023-09-12T12:40:02;75178.81;;;-142.75;100.00